sensor_id;sensor_type;location;lat;lon;timestamp;temperature;humidity
42743;DHT22;28397;44.552;-0.848;2023-03-01T00:00:15;1.20;99.90
42743;DHT22;28397;44.552;-0.848;2023-03-01T00:02:40;1.10;99.90
42743;DHT22;28397;44.552;-0.848;2023-03-01T00:05:06;1.00;99.90
42743;DHT22;28397;44.552;-0.848;2023-03-01T00:07:33;1.00;99.90
42743;DHT22;28397;44.552;-0.848;2023-03-01T00:09:58;1.00;99.90
42743;DHT22;28397;44.552;-0.848;2023-03-01T00:12:24;1.00;99.90
42743;DHT22;28397;44.552;-0.848;2023-03-01T00:14:50;0.90;99.90
42743;DHT22;28397;44.552;-0.848;2023-03-01T00:17:16;1.00;99.90
42743;DHT22;28397;44.552;-0.848;2023-03-01T00:19:42;1.00;99.90
42743;DHT22;28397;44.552;-0.848;2023-03-01T00:22:08;0.90;99.90
42743;DHT22;28397;44.552;-0.848;2023-03-01T00:24:35;0.80;99.90
42743;DHT22;28397;44.552;-0.848;2023-03-01T00:27:00;0.80;99.90
42743;DHT22;28397;44.552;-0.848;2023-03-01T00:29:26;0.90;99.90
42743;DHT22;28397;44.552;-0.848;2023-03-01T00:31:52;1.00;99.90
42743;DHT22;28397;44.552;-0.848;2023-03-01T00:34:17;0.90;99.90
42743;DHT22;28397;44.552;-0.848;2023-03-01T00:36:43;0.90;99.90
42743;DHT22;28397;44.552;-0.848;2023-03-01T00:39:14;0.80;99.90
42743;DHT22;28397;44.552;-0.848;2023-03-01T00:41:40;0.80;99.90
42743;DHT22;28397;44.552;-0.848;2023-03-01T00:44:06;0.90;99.90
42743;DHT22;28397;44.552;-0.848;2023-03-01T00:46:32;0.90;99.90
42743;DHT22;28397;44.552;-0.848;2023-03-01T00:48:59;0.90;99.90
42743;DHT22;28397;44.552;-0.848;2023-03-01T00:51:28;0.90;99.90
42743;DHT22;28397;44.552;-0.848;2023-03-01T00:53:55;0.90;99.90
42743;DHT22;28397;44.552;-0.848;2023-03-01T00:56:22;0.90;99.90
42743;DHT22;28397;44.552;-0.848;2023-03-01T00:58:48;0.90;99.90
42743;DHT22;28397;44.552;-0.848;2023-03-01T01:01:16;1.00;99.90
42743;DHT22;28397;44.552;-0.848;2023-03-01T01:03:52;0.90;99.90
42743;DHT22;28397;44.552;-0.848;2023-03-01T01:06:39;0.90;99.90
42743;DHT22;28397;44.552;-0.848;2023-03-01T01:09:08;1.00;99.90
42743;DHT22;28397;44.552;-0.848;2023-03-01T01:11:35;1.10;99.90
42743;DHT22;28397;44.552;-0.848;2023-03-01T01:14:04;1.00;99.90
42743;DHT22;28397;44.552;-0.848;2023-03-01T01:16:30;1.10;99.90
42743;DHT22;28397;44.552;-0.848;2023-03-01T01:18:56;1.10;99.90
42743;DHT22;28397;44.552;-0.848;2023-03-01T01:21:23;1.10;99.90
42743;DHT22;28397;44.552;-0.848;2023-03-01T01:23:50;1.00;99.90
42743;DHT22;28397;44.552;-0.848;2023-03-01T01:26:29;1.20;99.90
42743;DHT22;28397;44.552;-0.848;2023-03-01T01:28:56;1.10;99.90
42743;DHT22;28397;44.552;-0.848;2023-03-01T01:31:22;1.20;99.90
42743;DHT22;28397;44.552;-0.848;2023-03-01T01:33:52;1.10;99.90
42743;DHT22;28397;44.552;-0.848;2023-03-01T01:36:18;1.10;99.90
42743;DHT22;28397;44.552;-0.848;2023-03-01T01:38:44;1.20;99.90
42743;DHT22;28397;44.552;-0.848;2023-03-01T01:41:11;1.20;99.90
42743;DHT22;28397;44.552;-0.848;2023-03-01T01:44:09;1.20;99.90
42743;DHT22;28397;44.552;-0.848;2023-03-01T01:46:36;1.20;99.90
42743;DHT22;28397;44.552;-0.848;2023-03-01T01:49:11;1.20;99.90
42743;DHT22;28397;44.552;-0.848;2023-03-01T01:51:43;1.10;99.90
42743;DHT22;28397;44.552;-0.848;2023-03-01T01:54:46;1.20;99.90
42743;DHT22;28397;44.552;-0.848;2023-03-01T01:57:14;1.10;99.90
42743;DHT22;28397;44.552;-0.848;2023-03-01T01:59:44;1.10;99.90
42743;DHT22;28397;44.552;-0.848;2023-03-01T02:02:12;1.10;99.90
42743;DHT22;28397;44.552;-0.848;2023-03-01T02:04:38;1.00;99.90
42743;DHT22;28397;44.552;-0.848;2023-03-01T02:07:14;1.10;99.90
42743;DHT22;28397;44.552;-0.848;2023-03-01T02:09:42;1.10;99.90
42743;DHT22;28397;44.552;-0.848;2023-03-01T02:12:09;1.10;99.90
42743;DHT22;28397;44.552;-0.848;2023-03-01T02:14:35;1.20;99.90
42743;DHT22;28397;44.552;-0.848;2023-03-01T02:17:01;1.00;99.90
42743;DHT22;28397;44.552;-0.848;2023-03-01T02:20:26;1.00;99.90
42743;DHT22;28397;44.552;-0.848;2023-03-01T02:22:43;1.00;99.90
42743;DHT22;28397;44.552;-0.848;2023-03-01T02:30:36;0.80;99.90
42743;DHT22;28397;44.552;-0.848;2023-03-01T02:33:03;0.60;99.90
42743;DHT22;28397;44.552;-0.848;2023-03-01T02:35:31;0.60;99.90
42743;DHT22;28397;44.552;-0.848;2023-03-01T02:37:59;0.60;99.90
42743;DHT22;28397;44.552;-0.848;2023-03-01T02:40:30;0.50;99.90
42743;DHT22;28397;44.552;-0.848;2023-03-01T02:42:58;0.60;99.90
42743;DHT22;28397;44.552;-0.848;2023-03-01T02:45:24;0.50;99.90
42743;DHT22;28397;44.552;-0.848;2023-03-01T02:47:54;0.50;99.90
42743;DHT22;28397;44.552;-0.848;2023-03-01T02:50:51;0.60;99.90
42743;DHT22;28397;44.552;-0.848;2023-03-01T02:55:47;0.50;99.90
42743;DHT22;28397;44.552;-0.848;2023-03-01T02:58:13;0.40;99.90
42743;DHT22;28397;44.552;-0.848;2023-03-01T03:00:42;0.40;99.90
42743;DHT22;28397;44.552;-0.848;2023-03-01T03:03:20;0.40;99.90
42743;DHT22;28397;44.552;-0.848;2023-03-01T03:05:46;0.40;99.90
42743;DHT22;28397;44.552;-0.848;2023-03-01T03:08:13;0.40;99.90
42743;DHT22;28397;44.552;-0.848;2023-03-01T03:10:41;0.30;99.90
42743;DHT22;28397;44.552;-0.848;2023-03-01T03:13:10;0.30;99.90
42743;DHT22;28397;44.552;-0.848;2023-03-01T03:15:37;0.40;99.90
42743;DHT22;28397;44.552;-0.848;2023-03-01T03:18:06;0.40;99.90
42743;DHT22;28397;44.552;-0.848;2023-03-01T03:20:32;0.50;99.90
42743;DHT22;28397;44.552;-0.848;2023-03-01T03:22:58;0.30;99.90
42743;DHT22;28397;44.552;-0.848;2023-03-01T03:25:25;0.30;99.90
42743;DHT22;28397;44.552;-0.848;2023-03-01T03:27:52;0.30;99.90
42743;DHT22;28397;44.552;-0.848;2023-03-01T03:30:28;0.40;99.90
42743;DHT22;28397;44.552;-0.848;2023-03-01T03:32:55;0.40;99.90
42743;DHT22;28397;44.552;-0.848;2023-03-01T03:35:30;0.40;99.90
42743;DHT22;28397;44.552;-0.848;2023-03-01T03:37:58;0.40;99.90
42743;DHT22;28397;44.552;-0.848;2023-03-01T03:40:28;0.30;99.90
42743;DHT22;28397;44.552;-0.848;2023-03-01T03:42:54;0.30;99.90
42743;DHT22;28397;44.552;-0.848;2023-03-01T03:45:20;0.40;99.90
42743;DHT22;28397;44.552;-0.848;2023-03-01T03:47:46;0.40;99.90
42743;DHT22;28397;44.552;-0.848;2023-03-01T03:50:14;0.40;99.90
42743;DHT22;28397;44.552;-0.848;2023-03-01T03:52:40;0.40;99.90
42743;DHT22;28397;44.552;-0.848;2023-03-01T03:55:08;0.30;99.90
42743;DHT22;28397;44.552;-0.848;2023-03-01T03:57:40;0.40;99.90
42743;DHT22;28397;44.552;-0.848;2023-03-01T04:00:09;0.30;99.90
42743;DHT22;28397;44.552;-0.848;2023-03-01T04:02:39;0.30;99.90
42743;DHT22;28397;44.552;-0.848;2023-03-01T04:05:06;0.40;99.90
42743;DHT22;28397;44.552;-0.848;2023-03-01T04:07:34;0.30;99.90
42743;DHT22;28397;44.552;-0.848;2023-03-01T04:09:59;0.30;99.90
42743;DHT22;28397;44.552;-0.848;2023-03-01T04:12:25;0.30;99.90
42743;DHT22;28397;44.552;-0.848;2023-03-01T04:14:51;0.30;99.90
42743;DHT22;28397;44.552;-0.848;2023-03-01T04:17:16;0.30;99.90
42743;DHT22;28397;44.552;-0.848;2023-03-01T04:19:42;0.40;99.90
42743;DHT22;28397;44.552;-0.848;2023-03-01T04:22:09;0.40;99.90
42743;DHT22;28397;44.552;-0.848;2023-03-01T04:24:36;0.30;99.90
42743;DHT22;28397;44.552;-0.848;2023-03-01T04:27:02;0.10;99.90
42743;DHT22;28397;44.552;-0.848;2023-03-01T04:29:28;0.10;99.90
42743;DHT22;28397;44.552;-0.848;2023-03-01T04:31:54;0.10;99.90
42743;DHT22;28397;44.552;-0.848;2023-03-01T04:34:19;0.00;99.90
42743;DHT22;28397;44.552;-0.848;2023-03-01T04:36:45;-0.10;99.90
42743;DHT22;28397;44.552;-0.848;2023-03-01T04:39:11;-0.10;99.90
42743;DHT22;28397;44.552;-0.848;2023-03-01T04:41:40;-0.10;99.90
42743;DHT22;28397;44.552;-0.848;2023-03-01T04:44:07;-0.10;99.90
42743;DHT22;28397;44.552;-0.848;2023-03-01T04:46:35;-0.10;99.90
42743;DHT22;28397;44.552;-0.848;2023-03-01T04:49:01;-0.20;99.90
42743;DHT22;28397;44.552;-0.848;2023-03-01T04:51:26;-0.20;99.90
42743;DHT22;28397;44.552;-0.848;2023-03-01T04:53:52;-0.40;99.90
42743;DHT22;28397;44.552;-0.848;2023-03-01T04:56:18;-0.50;99.90
42743;DHT22;28397;44.552;-0.848;2023-03-01T04:58:44;-0.50;99.90
42743;DHT22;28397;44.552;-0.848;2023-03-01T05:01:15;-0.60;99.90
42743;DHT22;28397;44.552;-0.848;2023-03-01T05:03:47;-0.50;99.90
42743;DHT22;28397;44.552;-0.848;2023-03-01T05:06:14;-0.60;99.90
42743;DHT22;28397;44.552;-0.848;2023-03-01T05:08:41;-0.50;99.90
42743;DHT22;28397;44.552;-0.848;2023-03-01T05:11:08;-0.60;99.90
42743;DHT22;28397;44.552;-0.848;2023-03-01T05:13:35;-0.60;99.90
42743;DHT22;28397;44.552;-0.848;2023-03-01T05:16:03;-0.60;99.90
42743;DHT22;28397;44.552;-0.848;2023-03-01T05:18:30;-0.70;99.90
42743;DHT22;28397;44.552;-0.848;2023-03-01T05:21:06;-0.80;99.90
42743;DHT22;28397;44.552;-0.848;2023-03-01T05:23:33;-0.80;99.90
42743;DHT22;28397;44.552;-0.848;2023-03-01T05:26:00;-0.80;99.90
42743;DHT22;28397;44.552;-0.848;2023-03-01T05:28:27;-0.90;99.90
42743;DHT22;28397;44.552;-0.848;2023-03-01T05:30:54;-0.90;99.90
42743;DHT22;28397;44.552;-0.848;2023-03-01T05:33:19;-0.90;99.90
42743;DHT22;28397;44.552;-0.848;2023-03-01T05:35:48;-1.00;99.90
42743;DHT22;28397;44.552;-0.848;2023-03-01T05:38:14;-1.10;99.90
42743;DHT22;28397;44.552;-0.848;2023-03-01T05:40:42;-1.20;99.90
42743;DHT22;28397;44.552;-0.848;2023-03-01T05:43:09;-1.10;99.90
42743;DHT22;28397;44.552;-0.848;2023-03-01T05:45:36;-1.20;99.90
42743;DHT22;28397;44.552;-0.848;2023-03-01T05:48:02;-1.30;99.90
42743;DHT22;28397;44.552;-0.848;2023-03-01T05:50:31;-1.40;99.90
42743;DHT22;28397;44.552;-0.848;2023-03-01T05:53:03;-1.40;99.90
42743;DHT22;28397;44.552;-0.848;2023-03-01T05:55:31;-1.50;99.90
42743;DHT22;28397;44.552;-0.848;2023-03-01T05:58:01;-1.60;99.90
42743;DHT22;28397;44.552;-0.848;2023-03-01T06:00:28;-1.70;99.90
42743;DHT22;28397;44.552;-0.848;2023-03-01T06:02:54;-1.70;99.90
42743;DHT22;28397;44.552;-0.848;2023-03-01T06:05:21;-1.80;99.90
42743;DHT22;28397;44.552;-0.848;2023-03-01T06:07:48;-1.80;99.90
42743;DHT22;28397;44.552;-0.848;2023-03-01T06:10:14;-1.80;99.90
42743;DHT22;28397;44.552;-0.848;2023-03-01T06:12:41;-1.80;99.90
42743;DHT22;28397;44.552;-0.848;2023-03-01T06:15:08;-2.00;99.90
42743;DHT22;28397;44.552;-0.848;2023-03-01T06:17:36;-2.00;99.90
42743;DHT22;28397;44.552;-0.848;2023-03-01T06:20:09;-2.00;99.90
42743;DHT22;28397;44.552;-0.848;2023-03-01T06:22:35;-2.00;99.90
42743;DHT22;28397;44.552;-0.848;2023-03-01T06:25:01;-2.00;99.90
42743;DHT22;28397;44.552;-0.848;2023-03-01T06:27:27;-2.10;99.90
42743;DHT22;28397;44.552;-0.848;2023-03-01T06:29:52;-2.10;99.90
42743;DHT22;28397;44.552;-0.848;2023-03-01T06:32:18;-2.10;99.90
42743;DHT22;28397;44.552;-0.848;2023-03-01T06:34:44;-2.10;99.90
42743;DHT22;28397;44.552;-0.848;2023-03-01T06:37:10;-2.10;99.90
42743;DHT22;28397;44.552;-0.848;2023-03-01T06:39:36;-2.10;99.90
42743;DHT22;28397;44.552;-0.848;2023-03-01T06:42:02;-2.10;99.90
42743;DHT22;28397;44.552;-0.848;2023-03-01T06:44:28;-2.10;99.90
42743;DHT22;28397;44.552;-0.848;2023-03-01T06:46:54;-2.10;99.90
42743;DHT22;28397;44.552;-0.848;2023-03-01T06:49:20;-2.20;99.90
42743;DHT22;28397;44.552;-0.848;2023-03-01T06:51:46;-2.30;99.90
42743;DHT22;28397;44.552;-0.848;2023-03-01T06:54:12;-2.20;99.90
42743;DHT22;28397;44.552;-0.848;2023-03-01T06:56:39;-2.10;99.90
42743;DHT22;28397;44.552;-0.848;2023-03-01T06:59:04;-2.10;99.90
42743;DHT22;28397;44.552;-0.848;2023-03-01T07:01:30;-1.90;99.90
42743;DHT22;28397;44.552;-0.848;2023-03-01T07:03:56;-1.70;99.90
42743;DHT22;28397;44.552;-0.848;2023-03-01T07:06:23;-1.70;99.90
42743;DHT22;28397;44.552;-0.848;2023-03-01T07:08:49;-1.60;99.90
42743;DHT22;28397;44.552;-0.848;2023-03-01T07:11:14;-1.40;99.90
42743;DHT22;28397;44.552;-0.848;2023-03-01T07:13:40;-1.20;99.90
42743;DHT22;28397;44.552;-0.848;2023-03-01T07:16:06;0.10;99.90
42743;DHT22;28397;44.552;-0.848;2023-03-01T07:18:32;1.50;99.90
42743;DHT22;28397;44.552;-0.848;2023-03-01T07:20:58;2.60;99.90
42743;DHT22;28397;44.552;-0.848;2023-03-01T07:23:24;2.90;99.90
42743;DHT22;28397;44.552;-0.848;2023-03-01T07:25:53;2.00;99.90
42743;DHT22;28397;44.552;-0.848;2023-03-01T07:28:19;0.60;99.90
42743;DHT22;28397;44.552;-0.848;2023-03-01T07:30:45;1.30;99.90
42743;DHT22;28397;44.552;-0.848;2023-03-01T07:33:10;2.00;99.90
42743;DHT22;28397;44.552;-0.848;2023-03-01T07:35:36;0.90;99.90
42743;DHT22;28397;44.552;-0.848;2023-03-01T07:38:02;3.20;99.90
42743;DHT22;28397;44.552;-0.848;2023-03-01T07:40:27;4.00;99.90
42743;DHT22;28397;44.552;-0.848;2023-03-01T07:42:57;5.50;99.90
42743;DHT22;28397;44.552;-0.848;2023-03-01T07:45:24;6.60;99.90
42743;DHT22;28397;44.552;-0.848;2023-03-01T07:47:51;9.30;99.90
42743;DHT22;28397;44.552;-0.848;2023-03-01T07:50:17;10.50;99.90
42743;DHT22;28397;44.552;-0.848;2023-03-01T07:52:46;10.80;99.90
42743;DHT22;28397;44.552;-0.848;2023-03-01T07:55:12;10.70;99.90
42743;DHT22;28397;44.552;-0.848;2023-03-01T07:57:38;8.80;99.90
42743;DHT22;28397;44.552;-0.848;2023-03-01T08:00:05;10.30;99.90
42743;DHT22;28397;44.552;-0.848;2023-03-01T08:02:31;11.40;99.90
42743;DHT22;28397;44.552;-0.848;2023-03-01T08:04:56;12.50;99.90
42743;DHT22;28397;44.552;-0.848;2023-03-01T08:07:22;12.90;99.90
42743;DHT22;28397;44.552;-0.848;2023-03-01T08:09:48;12.10;99.90
42743;DHT22;28397;44.552;-0.848;2023-03-01T08:12:14;10.80;99.90
42743;DHT22;28397;44.552;-0.848;2023-03-01T08:14:41;13.10;99.90
42743;DHT22;28397;44.552;-0.848;2023-03-01T08:17:07;13.60;99.90
42743;DHT22;28397;44.552;-0.848;2023-03-01T08:19:33;14.20;99.90
42743;DHT22;28397;44.552;-0.848;2023-03-01T08:22:03;14.10;99.90
42743;DHT22;28397;44.552;-0.848;2023-03-01T08:24:29;13.60;99.90
42743;DHT22;28397;44.552;-0.848;2023-03-01T08:26:55;14.60;99.70
42743;DHT22;28397;44.552;-0.848;2023-03-01T08:29:21;17.10;97.40
42743;DHT22;28397;44.552;-0.848;2023-03-01T08:31:47;14.10;97.70
42743;DHT22;28397;44.552;-0.848;2023-03-01T08:34:17;14.60;97.70
42743;DHT22;28397;44.552;-0.848;2023-03-01T08:36:44;15.10;95.40
42743;DHT22;28397;44.552;-0.848;2023-03-01T08:39:12;16.70;95.90
42743;DHT22;28397;44.552;-0.848;2023-03-01T08:41:39;16.60;95.20
42743;DHT22;28397;44.552;-0.848;2023-03-01T08:44:05;12.10;95.80
42743;DHT22;28397;44.552;-0.848;2023-03-01T08:46:40;13.50;96.30
42743;DHT22;28397;44.552;-0.848;2023-03-01T08:49:16;11.70;97.30
42743;DHT22;28397;44.552;-0.848;2023-03-01T08:51:43;12.00;97.80
42743;DHT22;28397;44.552;-0.848;2023-03-01T08:54:15;15.90;96.00
42743;DHT22;28397;44.552;-0.848;2023-03-01T08:56:41;17.40;95.40
42743;DHT22;28397;44.552;-0.848;2023-03-01T08:59:08;15.40;94.70
42743;DHT22;28397;44.552;-0.848;2023-03-01T09:01:34;15.80;93.00
42743;DHT22;28397;44.552;-0.848;2023-03-01T09:04:00;14.10;94.90
42743;DHT22;28397;44.552;-0.848;2023-03-01T09:06:26;18.90;92.80
42743;DHT22;28397;44.552;-0.848;2023-03-01T09:08:51;18.00;91.30
42743;DHT22;28397;44.552;-0.848;2023-03-01T09:11:19;17.10;90.50
42743;DHT22;28397;44.552;-0.848;2023-03-01T09:13:46;18.70;90.50
42743;DHT22;28397;44.552;-0.848;2023-03-01T09:16:14;20.70;87.00
42743;DHT22;28397;44.552;-0.848;2023-03-01T09:18:40;18.20;86.70
42743;DHT22;28397;44.552;-0.848;2023-03-01T09:21:12;17.40;86.60
42743;DHT22;28397;44.552;-0.848;2023-03-01T09:23:40;16.50;87.60
42743;DHT22;28397;44.552;-0.848;2023-03-01T09:26:15;15.50;89.50
42743;DHT22;28397;44.552;-0.848;2023-03-01T09:28:42;21.00;85.70
42743;DHT22;28397;44.552;-0.848;2023-03-01T09:31:09;18.90;86.00
42743;DHT22;28397;44.552;-0.848;2023-03-01T09:33:38;16.70;86.00
42743;DHT22;28397;44.552;-0.848;2023-03-01T09:36:06;19.10;82.50
42743;DHT22;28397;44.552;-0.848;2023-03-01T09:38:33;16.40;81.30
42743;DHT22;28397;44.552;-0.848;2023-03-01T09:40:59;16.60;84.20
42743;DHT22;28397;44.552;-0.848;2023-03-01T09:43:46;18.10;86.60
42743;DHT22;28397;44.552;-0.848;2023-03-01T09:46:14;17.30;80.40
42743;DHT22;28397;44.552;-0.848;2023-03-01T09:48:46;15.00;83.40
42743;DHT22;28397;44.552;-0.848;2023-03-01T09:51:18;14.80;84.90
42743;DHT22;28397;44.552;-0.848;2023-03-01T09:53:45;15.70;84.50
42743;DHT22;28397;44.552;-0.848;2023-03-01T09:56:41;15.10;84.60
42743;DHT22;28397;44.552;-0.848;2023-03-01T09:59:15;16.50;81.70
42743;DHT22;28397;44.552;-0.848;2023-03-01T10:04:48;18.40;83.20
42743;DHT22;28397;44.552;-0.848;2023-03-01T10:07:28;17.40;74.80
42743;DHT22;28397;44.552;-0.848;2023-03-01T10:09:58;13.00;78.30
42743;DHT22;28397;44.552;-0.848;2023-03-01T10:12:30;12.50;84.50
42743;DHT22;28397;44.552;-0.848;2023-03-01T10:15:53;12.50;80.30
42743;DHT22;28397;44.552;-0.848;2023-03-01T10:17:56;12.00;81.70
42743;DHT22;28397;44.552;-0.848;2023-03-01T10:23:11;12.00;88.50
42743;DHT22;28397;44.552;-0.848;2023-03-01T10:31:12;13.50;85.10
42743;DHT22;28397;44.552;-0.848;2023-03-01T10:33:38;15.00;82.90
42743;DHT22;28397;44.552;-0.848;2023-03-01T10:36:08;14.70;82.00
42743;DHT22;28397;44.552;-0.848;2023-03-01T10:38:57;12.60;82.10
42743;DHT22;28397;44.552;-0.848;2023-03-01T10:41:25;11.80;81.90
42743;DHT22;28397;44.552;-0.848;2023-03-01T10:43:56;12.70;81.60
42743;DHT22;28397;44.552;-0.848;2023-03-01T10:46:29;12.80;81.30
42743;DHT22;28397;44.552;-0.848;2023-03-01T10:51:33;12.30;80.90
42743;DHT22;28397;44.552;-0.848;2023-03-01T10:53:59;13.00;80.20
42743;DHT22;28397;44.552;-0.848;2023-03-01T10:56:24;13.20;81.00
42743;DHT22;28397;44.552;-0.848;2023-03-01T10:59:01;12.90;81.00
42743;DHT22;28397;44.552;-0.848;2023-03-01T11:01:33;13.60;81.30
42743;DHT22;28397;44.552;-0.848;2023-03-01T11:04:18;12.40;81.60
42743;DHT22;28397;44.552;-0.848;2023-03-01T11:06:43;10.90;82.90
42743;DHT22;28397;44.552;-0.848;2023-03-01T11:09:23;9.40;83.70
42743;DHT22;28397;44.552;-0.848;2023-03-01T11:11:57;11.80;85.20
42743;DHT22;28397;44.552;-0.848;2023-03-01T11:14:27;11.40;81.60
42743;DHT22;28397;44.552;-0.848;2023-03-01T11:17:11;10.80;84.70
42743;DHT22;28397;44.552;-0.848;2023-03-01T11:19:37;11.70;83.40
42743;DHT22;28397;44.552;-0.848;2023-03-01T11:22:07;12.50;83.10
42743;DHT22;28397;44.552;-0.848;2023-03-01T11:24:51;12.60;83.20
42743;DHT22;28397;44.552;-0.848;2023-03-01T11:27:23;12.20;82.70
42743;DHT22;28397;44.552;-0.848;2023-03-01T11:30:13;13.20;83.70
42743;DHT22;28397;44.552;-0.848;2023-03-01T11:32:47;13.10;81.70
42743;DHT22;28397;44.552;-0.848;2023-03-01T11:35:26;12.80;85.80
42743;DHT22;28397;44.552;-0.848;2023-03-01T11:40:42;13.10;84.40
42743;DHT22;28397;44.552;-0.848;2023-03-01T11:51:48;13.60;84.50
42743;DHT22;28397;44.552;-0.848;2023-03-01T12:05:54;12.10;85.70
42743;DHT22;28397;44.552;-0.848;2023-03-01T12:08:53;10.70;87.10
42743;DHT22;28397;44.552;-0.848;2023-03-01T12:22:35;10.10;88.40
42743;DHT22;28397;44.552;-0.848;2023-03-01T12:26:06;10.60;88.20
42743;DHT22;28397;44.552;-0.848;2023-03-01T12:44:46;10.70;88.50
42743;DHT22;28397;44.552;-0.848;2023-03-01T12:47:26;10.20;89.90
42743;DHT22;28397;44.552;-0.848;2023-03-01T12:50:02;10.50;90.50
42743;DHT22;28397;44.552;-0.848;2023-03-01T12:52:41;11.20;89.90
42743;DHT22;28397;44.552;-0.848;2023-03-01T12:55:38;10.50;90.10
42743;DHT22;28397;44.552;-0.848;2023-03-01T12:58:39;10.80;91.70
42743;DHT22;28397;44.552;-0.848;2023-03-01T13:04:16;10.20;91.30
42743;DHT22;28397;44.552;-0.848;2023-03-01T13:11:42;11.40;91.70
42743;DHT22;28397;44.552;-0.848;2023-03-01T13:16:47;11.80;90.50
42743;DHT22;28397;44.552;-0.848;2023-03-01T13:19:24;10.70;91.90
42743;DHT22;28397;44.552;-0.848;2023-03-01T13:21:52;10.90;89.80
42743;DHT22;28397;44.552;-0.848;2023-03-01T13:24:39;11.00;92.10
42743;DHT22;28397;44.552;-0.848;2023-03-01T13:34:52;10.40;90.90
42743;DHT22;28397;44.552;-0.848;2023-03-01T13:37:30;10.20;91.40
42743;DHT22;28397;44.552;-0.848;2023-03-01T13:39:59;10.90;92.50
42743;DHT22;28397;44.552;-0.848;2023-03-01T13:42:39;10.90;90.00
42743;DHT22;28397;44.552;-0.848;2023-03-01T13:45:20;11.30;91.80
42743;DHT22;28397;44.552;-0.848;2023-03-01T13:47:50;11.80;91.40
42743;DHT22;28397;44.552;-0.848;2023-03-01T13:50:23;10.60;91.50
42743;DHT22;28397;44.552;-0.848;2023-03-01T13:53:05;9.70;92.40
42743;DHT22;28397;44.552;-0.848;2023-03-01T13:55:41;9.60;92.70
42743;DHT22;28397;44.552;-0.848;2023-03-01T13:58:31;10.50;92.60
42743;DHT22;28397;44.552;-0.848;2023-03-01T14:01:02;10.70;92.30
42743;DHT22;28397;44.552;-0.848;2023-03-01T14:03:29;9.60;91.40
42743;DHT22;28397;44.552;-0.848;2023-03-01T14:06:00;10.10;92.30
42743;DHT22;28397;44.552;-0.848;2023-03-01T14:08:28;9.40;91.90
42743;DHT22;28397;44.552;-0.848;2023-03-01T14:16:32;9.10;92.00
42743;DHT22;28397;44.552;-0.848;2023-03-01T14:19:23;9.70;93.50
42743;DHT22;28397;44.552;-0.848;2023-03-01T14:22:05;10.20;93.90
42743;DHT22;28397;44.552;-0.848;2023-03-01T14:24:39;10.90;94.10
42743;DHT22;28397;44.552;-0.848;2023-03-01T14:27:12;10.50;92.80
42743;DHT22;28397;44.552;-0.848;2023-03-01T14:29:39;10.80;92.40
42743;DHT22;28397;44.552;-0.848;2023-03-01T14:32:28;11.00;93.00
42743;DHT22;28397;44.552;-0.848;2023-03-01T14:34:56;10.70;91.80
42743;DHT22;28397;44.552;-0.848;2023-03-01T14:37:29;10.90;93.40
42743;DHT22;28397;44.552;-0.848;2023-03-01T14:39:56;11.30;93.30
42743;DHT22;28397;44.552;-0.848;2023-03-01T14:42:24;11.00;92.70
42743;DHT22;28397;44.552;-0.848;2023-03-01T14:44:53;11.10;92.70
42743;DHT22;28397;44.552;-0.848;2023-03-01T14:47:33;11.10;93.00
42743;DHT22;28397;44.552;-0.848;2023-03-01T14:50:08;11.30;93.20
42743;DHT22;28397;44.552;-0.848;2023-03-01T14:52:47;11.20;94.90
42743;DHT22;28397;44.552;-0.848;2023-03-01T14:55:17;11.10;93.30
42743;DHT22;28397;44.552;-0.848;2023-03-01T14:57:50;10.90;94.00
42743;DHT22;28397;44.552;-0.848;2023-03-01T15:00:47;10.70;94.30
42743;DHT22;28397;44.552;-0.848;2023-03-01T15:03:35;10.70;94.60
42743;DHT22;28397;44.552;-0.848;2023-03-01T15:06:05;10.70;95.10
42743;DHT22;28397;44.552;-0.848;2023-03-01T15:08:32;10.30;93.90
42743;DHT22;28397;44.552;-0.848;2023-03-01T15:11:04;10.40;95.70
42743;DHT22;28397;44.552;-0.848;2023-03-01T15:13:34;10.10;94.70
42743;DHT22;28397;44.552;-0.848;2023-03-01T15:19:15;10.50;95.20
42743;DHT22;28397;44.552;-0.848;2023-03-01T15:21:35;10.40;95.10
42743;DHT22;28397;44.552;-0.848;2023-03-01T15:29:24;10.40;96.40
42743;DHT22;28397;44.552;-0.848;2023-03-01T15:34:30;10.50;96.80
42743;DHT22;28397;44.552;-0.848;2023-03-01T15:37:00;10.10;97.10
42743;DHT22;28397;44.552;-0.848;2023-03-01T15:42:07;10.20;97.30
42743;DHT22;28397;44.552;-0.848;2023-03-01T15:44:38;9.70;97.20
42743;DHT22;28397;44.552;-0.848;2023-03-01T15:47:28;9.50;97.70
42743;DHT22;28397;44.552;-0.848;2023-03-01T15:49:54;9.40;99.20
42743;DHT22;28397;44.552;-0.848;2023-03-01T15:52:27;9.70;99.20
42743;DHT22;28397;44.552;-0.848;2023-03-01T15:55:00;9.70;99.10
42743;DHT22;28397;44.552;-0.848;2023-03-01T15:57:27;9.40;99.90
42743;DHT22;28397;44.552;-0.848;2023-03-01T15:59:52;9.10;99.90
42743;DHT22;28397;44.552;-0.848;2023-03-01T16:02:18;9.00;99.90
42743;DHT22;28397;44.552;-0.848;2023-03-01T16:04:47;9.00;99.90
42743;DHT22;28397;44.552;-0.848;2023-03-01T16:07:14;9.00;99.90
42743;DHT22;28397;44.552;-0.848;2023-03-01T16:09:40;9.00;99.90
42743;DHT22;28397;44.552;-0.848;2023-03-01T16:12:13;9.00;99.90
42743;DHT22;28397;44.552;-0.848;2023-03-01T16:14:40;9.00;99.90
42743;DHT22;28397;44.552;-0.848;2023-03-01T16:17:05;8.70;99.90
42743;DHT22;28397;44.552;-0.848;2023-03-01T16:19:32;8.80;99.90
42743;DHT22;28397;44.552;-0.848;2023-03-01T16:21:58;9.10;99.90
42743;DHT22;28397;44.552;-0.848;2023-03-01T16:24:24;9.00;99.90
42743;DHT22;28397;44.552;-0.848;2023-03-01T16:26:51;8.70;99.90
42743;DHT22;28397;44.552;-0.848;2023-03-01T16:29:17;8.90;99.90
42743;DHT22;28397;44.552;-0.848;2023-03-01T16:31:42;8.80;99.90
42743;DHT22;28397;44.552;-0.848;2023-03-01T16:34:08;8.80;99.90
42743;DHT22;28397;44.552;-0.848;2023-03-01T16:36:34;8.80;99.90
42743;DHT22;28397;44.552;-0.848;2023-03-01T16:39:00;8.80;99.90
42743;DHT22;28397;44.552;-0.848;2023-03-01T16:41:27;8.60;99.90
42743;DHT22;28397;44.552;-0.848;2023-03-01T16:43:53;8.40;99.90
42743;DHT22;28397;44.552;-0.848;2023-03-01T16:46:19;8.30;99.90
42743;DHT22;28397;44.552;-0.848;2023-03-01T16:48:46;8.30;99.90
42743;DHT22;28397;44.552;-0.848;2023-03-01T16:51:12;8.40;99.90
42743;DHT22;28397;44.552;-0.848;2023-03-01T16:53:38;8.30;99.90
42743;DHT22;28397;44.552;-0.848;2023-03-01T16:56:07;8.10;99.90
42743;DHT22;28397;44.552;-0.848;2023-03-01T16:58:34;7.90;99.90
42743;DHT22;28397;44.552;-0.848;2023-03-01T17:01:11;7.70;99.90
42743;DHT22;28397;44.552;-0.848;2023-03-01T17:03:38;7.80;99.90
42743;DHT22;28397;44.552;-0.848;2023-03-01T17:06:06;7.60;99.90
42743;DHT22;28397;44.552;-0.848;2023-03-01T17:08:33;7.60;99.90
42743;DHT22;28397;44.552;-0.848;2023-03-01T17:11:07;7.30;99.90
42743;DHT22;28397;44.552;-0.848;2023-03-01T17:13:33;7.10;99.90
42743;DHT22;28397;44.552;-0.848;2023-03-01T17:16:02;7.10;99.90
42743;DHT22;28397;44.552;-0.848;2023-03-01T17:18:27;6.90;99.90
42743;DHT22;28397;44.552;-0.848;2023-03-01T17:20:53;6.90;99.90
42743;DHT22;28397;44.552;-0.848;2023-03-01T17:23:19;6.80;99.90
42743;DHT22;28397;44.552;-0.848;2023-03-01T17:25:45;6.60;99.90
42743;DHT22;28397;44.552;-0.848;2023-03-01T17:28:12;6.50;99.90